sensor_id;sensor_type;location;lat;lon;timestamp;P1;durP1;ratioP1;P2;durP2;ratioP2
75914;SDS011;64593;51.050;13.780;2024-03-29T07:01:21;1.55;;;0.63;;
75914;SDS011;64593;51.050;13.780;2024-03-29T07:06:22;2.80;;;0.73;;
75914;SDS011;64593;51.050;13.780;2024-03-29T07:11:23;3.40;;;0.65;;
75914;SDS011;64593;51.050;13.780;2024-03-29T07:16:24;2.15;;;0.70;;
75914;SDS011;64593;51.050;13.780;2024-03-29T07:21:25;3.08;;;0.80;;
75914;SDS011;64593;51.050;13.780;2024-03-29T07:26:26;3.00;;;0.60;;
75914;SDS011;64593;51.050;13.780;2024-03-29T07:31:27;2.15;;;0.70;;
75914;SDS011;64593;51.050;13.780;2024-03-29T07:36:28;1.05;;;0.50;;
75914;SDS011;64593;51.050;13.780;2024-03-29T07:46:33;1.67;;;0.40;;
75914;SDS011;64593;51.050;13.780;2024-03-29T07:51:34;1.40;;;0.32;;
75914;SDS011;64593;51.050;13.780;2024-03-29T07:56:35;1.88;;;0.55;;
75914;SDS011;64593;51.050;13.780;2024-03-29T08:01:36;2.42;;;0.60;;
75914;SDS011;64593;51.050;13.780;2024-03-29T08:06:37;2.65;;;0.68;;
75914;SDS011;64593;51.050;13.780;2024-03-29T08:11:38;4.13;;;0.40;;
75914;SDS011;64593;51.050;13.780;2024-03-29T08:16:39;2.33;;;0.40;;
75914;SDS011;64593;51.050;13.780;2024-03-29T08:21:39;0.95;;;0.22;;
75914;SDS011;64593;51.050;13.780;2024-03-29T08:26:40;3.63;;;0.68;;
75914;SDS011;64593;51.050;13.780;2024-03-29T08:31:41;2.03;;;0.70;;
75914;SDS011;64593;51.050;13.780;2024-03-29T08:36:42;3.30;;;0.47;;
75914;SDS011;64593;51.050;13.780;2024-03-29T08:42:02;1.48;;;0.35;;
75914;SDS011;64593;51.050;13.780;2024-03-29T08:47:06;3.25;;;1.23;;
75914;SDS011;64593;51.050;13.780;2024-03-29T08:52:07;3.78;;;0.70;;
75914;SDS011;64593;51.050;13.780;2024-03-29T08:57:26;3.67;;;0.40;;
75914;SDS011;64593;51.050;13.780;2024-03-29T09:02:27;2.42;;;0.40;;
75914;SDS011;64593;51.050;13.780;2024-03-29T09:07:28;1.30;;;0.40;;
75914;SDS011;64593;51.050;13.780;2024-03-29T09:12:29;3.28;;;0.60;;
75914;SDS011;64593;51.050;13.780;2024-03-29T09:17:30;2.35;;;0.40;;
75914;SDS011;64593;51.050;13.780;2024-03-29T09:22:31;3.17;;;0.57;;
75914;SDS011;64593;51.050;13.780;2024-03-29T09:27:31;1.00;;;0.40;;
75914;SDS011;64593;51.050;13.780;2024-03-29T09:32:36;2.15;;;0.60;;
75914;SDS011;64593;51.050;13.780;2024-03-29T09:37:37;2.67;;;0.30;;
75914;SDS011;64593;51.050;13.780;2024-03-29T09:42:40;1.35;;;0.38;;
75914;SDS011;64593;51.050;13.780;2024-03-29T09:47:41;2.22;;;0.40;;
75914;SDS011;64593;51.050;13.780;2024-03-29T09:52:43;2.40;;;0.68;;
75914;SDS011;64593;51.050;13.780;2024-03-29T09:57:43;1.38;;;0.40;;
75914;SDS011;64593;51.050;13.780;2024-03-29T10:02:44;2.10;;;0.63;;
75914;SDS011;64593;51.050;13.780;2024-03-29T10:07:47;2.78;;;0.57;;
75914;SDS011;64593;51.050;13.780;2024-03-29T10:12:48;4.65;;;0.47;;
75914;SDS011;64593;51.050;13.780;2024-03-29T10:17:50;2.83;;;0.60;;
75914;SDS011;64593;51.050;13.780;2024-03-29T10:22:51;1.20;;;0.50;;
75914;SDS011;64593;51.050;13.780;2024-03-29T10:27:53;2.78;;;0.50;;
75914;SDS011;64593;51.050;13.780;2024-03-29T10:32:57;3.92;;;0.60;;
75914;SDS011;64593;51.050;13.780;2024-03-29T10:37:58;2.45;;;0.80;;
75914;SDS011;64593;51.050;13.780;2024-03-29T10:42:58;3.10;;;0.70;;
75914;SDS011;64593;51.050;13.780;2024-03-29T10:48:04;2.00;;;0.70;;
75914;SDS011;64593;51.050;13.780;2024-03-29T10:53:08;1.73;;;0.40;;
75914;SDS011;64593;51.050;13.780;2024-03-29T10:58:11;2.63;;;0.60;;
75914;SDS011;64593;51.050;13.780;2024-03-29T11:03:13;1.40;;;0.40;;
75914;SDS011;64593;51.050;13.780;2024-03-29T11:08:16;1.70;;;0.57;;
75914;SDS011;64593;51.050;13.780;2024-03-29T11:14:05;2.80;;;0.70;;
75914;SDS011;64593;51.050;13.780;2024-03-29T11:18:50;1.88;;;0.65;;
75914;SDS011;64593;51.050;13.780;2024-03-29T11:23:55;3.60;;;1.20;;
75914;SDS011;64593;51.050;13.780;2024-03-29T11:34:02;2.25;;;0.60;;
75914;SDS011;64593;51.050;13.780;2024-03-29T11:39:03;2.60;;;0.60;;
75914;SDS011;64593;51.050;13.780;2024-03-29T11:44:03;2.25;;;0.60;;
75914;SDS011;64593;51.050;13.780;2024-03-29T11:49:04;1.83;;;0.60;;
75914;SDS011;64593;51.050;13.780;2024-03-29T11:54:24;4.07;;;0.65;;
75914;SDS011;64593;51.050;13.780;2024-03-29T11:59:43;4.28;;;0.77;;
75914;SDS011;64593;51.050;13.780;2024-03-29T12:04:44;1.77;;;0.60;;
75914;SDS011;64593;51.050;13.780;2024-03-29T12:09:46;1.38;;;0.50;;
75914;SDS011;64593;51.050;13.780;2024-03-29T12:14:47;1.15;;;0.50;;
75914;SDS011;64593;51.050;13.780;2024-03-29T12:19:48;1.67;;;0.55;;
75914;SDS011;64593;51.050;13.780;2024-03-29T12:24:50;2.20;;;0.60;;
75914;SDS011;64593;51.050;13.780;2024-03-29T12:29:51;2.67;;;0.73;;
75914;SDS011;64593;51.050;13.780;2024-03-29T12:34:52;5.82;;;0.63;;
75914;SDS011;64593;51.050;13.780;2024-03-29T12:39:53;2.13;;;0.88;;
75914;SDS011;64593;51.050;13.780;2024-03-29T12:44:56;2.05;;;0.50;;
75914;SDS011;64593;51.050;13.780;2024-03-29T12:49:58;3.72;;;0.70;;
75914;SDS011;64593;51.050;13.780;2024-03-29T12:54:59;2.95;;;0.75;;
75914;SDS011;64593;51.050;13.780;2024-03-29T13:00:00;1.85;;;0.60;;
75914;SDS011;64593;51.050;13.780;2024-03-29T13:05:02;3.30;;;0.80;;
75914;SDS011;64593;51.050;13.780;2024-03-29T13:10:23;1.10;;;0.50;;
75914;SDS011;64593;51.050;13.780;2024-03-29T13:15:26;4.07;;;0.60;;
75914;SDS011;64593;51.050;13.780;2024-03-29T13:20:30;1.75;;;0.43;;
75914;SDS011;64593;51.050;13.780;2024-03-29T13:25:31;1.95;;;0.40;;
75914;SDS011;64593;51.050;13.780;2024-03-29T13:30:51;4.63;;;0.52;;
75914;SDS011;64593;51.050;13.780;2024-03-29T13:35:52;1.40;;;0.40;;
75914;SDS011;64593;51.050;13.780;2024-03-29T13:40:54;1.02;;;0.30;;
75914;SDS011;64593;51.050;13.780;2024-03-29T13:45:56;2.20;;;0.50;;
75914;SDS011;64593;51.050;13.780;2024-03-29T13:56:00;1.90;;;0.40;;
75914;SDS011;64593;51.050;13.780;2024-03-29T14:01:02;0.60;;;0.20;;
75914;SDS011;64593;51.050;13.780;2024-03-29T14:06:03;1.55;;;0.40;;
75914;SDS011;64593;51.050;13.780;2024-03-29T14:11:05;0.88;;;0.30;;
75914;SDS011;64593;51.050;13.780;2024-03-29T14:16:25;1.25;;;0.20;;
75914;SDS011;64593;51.050;13.780;2024-03-29T14:21:26;1.55;;;0.60;;
75914;SDS011;64593;51.050;13.780;2024-03-29T14:26:46;1.48;;;0.50;;
75914;SDS011;64593;51.050;13.780;2024-03-29T14:31:47;4.63;;;0.45;;
75914;SDS011;64593;51.050;13.780;2024-03-29T14:37:07;1.98;;;0.60;;
75914;SDS011;64593;51.050;13.780;2024-03-29T14:42:09;2.70;;;0.50;;
75914;SDS011;64593;51.050;13.780;2024-03-29T14:47:13;2.45;;;0.65;;
75914;SDS011;64593;51.050;13.780;2024-03-29T14:52:15;2.00;;;0.60;;
75914;SDS011;64593;51.050;13.780;2024-03-29T14:57:34;4.25;;;0.77;;
75914;SDS011;64593;51.050;13.780;2024-03-29T15:02:35;1.52;;;0.50;;
75914;SDS011;64593;51.050;13.780;2024-03-29T15:07:36;2.47;;;0.80;;
75914;SDS011;64593;51.050;13.780;2024-03-29T15:12:37;2.35;;;0.80;;
75914;SDS011;64593;51.050;13.780;2024-03-29T15:17:38;2.38;;;0.68;;
75914;SDS011;64593;51.050;13.780;2024-03-29T15:22:41;4.57;;;0.90;;
75914;SDS011;64593;51.050;13.780;2024-03-29T15:27:45;2.00;;;0.73;;
75914;SDS011;64593;51.050;13.780;2024-03-29T15:33:05;1.50;;;0.55;;
75914;SDS011;64593;51.050;13.780;2024-03-29T15:38:12;1.17;;;0.50;;
75914;SDS011;64593;51.050;13.780;2024-03-29T15:43:20;2.60;;;0.80;;
75914;SDS011;64593;51.050;13.780;2024-03-29T15:48:30;2.85;;;0.80;;
75914;SDS011;64593;51.050;13.780;2024-03-29T15:53:32;2.30;;;0.80;;
75914;SDS011;64593;51.050;13.780;2024-03-29T15:58:33;1.25;;;0.40;;
75914;SDS011;64593;51.050;13.780;2024-03-29T16:03:35;3.70;;;0.70;;
75914;SDS011;64593;51.050;13.780;2024-03-29T16:08:36;2.63;;;1.02;;
75914;SDS011;64593;51.050;13.780;2024-03-29T16:13:38;3.78;;;1.30;;
75914;SDS011;64593;51.050;13.780;2024-03-29T16:18:42;3.15;;;0.68;;
75914;SDS011;64593;51.050;13.780;2024-03-29T16:23:43;2.60;;;0.90;;
75914;SDS011;64593;51.050;13.780;2024-03-29T16:28:44;1.75;;;0.82;;
75914;SDS011;64593;51.050;13.780;2024-03-29T16:33:45;2.47;;;0.90;;
75914;SDS011;64593;51.050;13.780;2024-03-29T16:39:04;3.67;;;1.42;;
75914;SDS011;64593;51.050;13.780;2024-03-29T16:44:05;2.63;;;1.40;;
75914;SDS011;64593;51.050;13.780;2024-03-29T16:49:06;4.32;;;1.52;;
75914;SDS011;64593;51.050;13.780;2024-03-29T16:54:26;4.35;;;1.85;;
75914;SDS011;64593;51.050;13.780;2024-03-29T16:59:27;3.65;;;1.92;;
75914;SDS011;64593;51.050;13.780;2024-03-29T17:04:29;5.93;;;2.80;;
75914;SDS011;64593;51.050;13.780;2024-03-29T17:09:48;7.90;;;2.40;;
75914;SDS011;64593;51.050;13.780;2024-03-29T17:15:08;6.32;;;2.45;;
75914;SDS011;64593;51.050;13.780;2024-03-29T17:20:09;6.32;;;2.65;;
75914;SDS011;64593;51.050;13.780;2024-03-29T17:25:10;4.78;;;2.33;;
75914;SDS011;64593;51.050;13.780;2024-03-29T17:30:13;5.57;;;2.20;;
75914;SDS011;64593;51.050;13.780;2024-03-29T17:35:14;4.95;;;2.28;;
75914;SDS011;64593;51.050;13.780;2024-03-29T17:40:15;4.65;;;2.40;;
75914;SDS011;64593;51.050;13.780;2024-03-29T17:45:16;6.28;;;3.03;;
75914;SDS011;64593;51.050;13.780;2024-03-29T17:50:36;5.82;;;3.10;;
75914;SDS011;64593;51.050;13.780;2024-03-29T17:55:37;6.80;;;3.22;;
75914;SDS011;64593;51.050;13.780;2024-03-29T18:00:38;10.30;;;4.07;;
75914;SDS011;64593;51.050;13.780;2024-03-29T18:05:39;10.20;;;4.70;;
75914;SDS011;64593;51.050;13.780;2024-03-29T18:10:40;10.70;;;5.50;;
75914;SDS011;64593;51.050;13.780;2024-03-29T18:15:42;12.32;;;5.63;;
75914;SDS011;64593;51.050;13.780;2024-03-29T18:20:45;11.15;;;5.18;;
75914;SDS011;64593;51.050;13.780;2024-03-29T18:25:46;13.52;;;6.18;;
75914;SDS011;64593;51.050;13.780;2024-03-29T18:30:47;12.32;;;6.57;;
75914;SDS011;64593;51.050;13.780;2024-03-29T18:36:07;13.15;;;7.53;;
75914;SDS011;64593;51.050;13.780;2024-03-29T18:41:08;12.65;;;7.35;;
75914;SDS011;64593;51.050;13.780;2024-03-29T18:46:09;13.70;;;8.30;;
75914;SDS011;64593;51.050;13.780;2024-03-29T18:51:10;15.55;;;8.48;;
75914;SDS011;64593;51.050;13.780;2024-03-29T18:56:11;12.38;;;7.40;;
75914;SDS011;64593;51.050;13.780;2024-03-29T19:01:12;13.30;;;6.95;;
75914;SDS011;64593;51.050;13.780;2024-03-29T19:06:13;13.30;;;6.10;;
75914;SDS011;64593;51.050;13.780;2024-03-29T19:11:17;12.50;;;6.38;;
75914;SDS011;64593;51.050;13.780;2024-03-29T19:16:23;11.65;;;5.93;;
75914;SDS011;64593;51.050;13.780;2024-03-29T19:21:24;12.10;;;5.15;;
75914;SDS011;64593;51.050;13.780;2024-03-29T19:26:26;12.13;;;5.07;;
75914;SDS011;64593;51.050;13.780;2024-03-29T19:31:32;10.95;;;5.07;;
75914;SDS011;64593;51.050;13.780;2024-03-29T19:36:33;8.15;;;4.45;;
75914;SDS011;64593;51.050;13.780;2024-03-29T19:41:34;9.70;;;4.60;;
75914;SDS011;64593;51.050;13.780;2024-03-29T19:46:35;9.02;;;4.85;;
75914;SDS011;64593;51.050;13.780;2024-03-29T19:51:37;9.90;;;4.97;;
75914;SDS011;64593;51.050;13.780;2024-03-29T19:56:39;8.82;;;4.50;;
75914;SDS011;64593;51.050;13.780;2024-03-29T20:01:41;8.25;;;4.70;;
75914;SDS011;64593;51.050;13.780;2024-03-29T20:06:41;9.82;;;4.80;;
75914;SDS011;64593;51.050;13.780;2024-03-29T20:11:42;11.27;;;4.70;;
75914;SDS011;64593;51.050;13.780;2024-03-29T20:16:47;9.48;;;4.95;;
75914;SDS011;64593;51.050;13.780;2024-03-29T20:21:48;10.52;;;5.97;;
75914;SDS011;64593;51.050;13.780;2024-03-29T20:26:49;11.65;;;6.10;;
75914;SDS011;64593;51.050;13.780;2024-03-29T20:31:50;14.45;;;6.03;;
75914;SDS011;64593;51.050;13.780;2024-03-29T20:36:53;16.67;;;6.03;;
75914;SDS011;64593;51.050;13.780;2024-03-29T20:41:54;8.80;;;5.35;;
75914;SDS011;64593;51.050;13.780;2024-03-29T20:46:55;11.60;;;5.70;;
75914;SDS011;64593;51.050;13.780;2024-03-29T20:51:56;9.23;;;5.13;;
75914;SDS011;64593;51.050;13.780;2024-03-29T20:56:57;10.07;;;4.93;;
75914;SDS011;64593;51.050;13.780;2024-03-29T21:01:58;9.45;;;5.32;;
75914;SDS011;64593;51.050;13.780;2024-03-29T21:07:18;9.07;;;4.50;;
75914;SDS011;64593;51.050;13.780;2024-03-29T21:12:21;7.72;;;3.95;;
75914;SDS011;64593;51.050;13.780;2024-03-29T21:17:48;13.23;;;5.18;;
75914;SDS011;64593;51.050;13.780;2024-03-29T21:23:11;15.23;;;6.30;;
75914;SDS011;64593;51.050;13.780;2024-03-29T21:28:13;13.82;;;6.65;;
75914;SDS011;64593;51.050;13.780;2024-03-29T21:33:15;9.88;;;4.57;;
75914;SDS011;64593;51.050;13.780;2024-03-29T21:38:20;11.98;;;5.25;;
75914;SDS011;64593;51.050;13.780;2024-03-29T21:43:21;13.90;;;5.72;;
75914;SDS011;64593;51.050;13.780;2024-03-29T21:48:22;11.48;;;5.80;;
75914;SDS011;64593;51.050;13.780;2024-03-29T21:53:42;20.58;;;7.50;;
75914;SDS011;64593;51.050;13.780;2024-03-29T21:58:43;13.82;;;5.43;;
75914;SDS011;64593;51.050;13.780;2024-03-29T22:03:45;10.75;;;4.57;;
75914;SDS011;64593;51.050;13.780;2024-03-29T22:08:46;8.77;;;2.15;;
75914;SDS011;64593;51.050;13.780;2024-03-29T22:13:47;5.82;;;2.38;;
75914;SDS011;64593;51.050;13.780;2024-03-29T22:18:49;6.88;;;2.72;;
75914;SDS011;64593;51.050;13.780;2024-03-29T22:24:09;5.75;;;1.55;;
75914;SDS011;64593;51.050;13.780;2024-03-29T22:29:11;7.30;;;2.20;;
75914;SDS011;64593;51.050;13.780;2024-03-29T22:34:15;5.30;;;2.60;;
75914;SDS011;64593;51.050;13.780;2024-03-29T22:39:15;8.80;;;2.90;;
75914;SDS011;64593;51.050;13.780;2024-03-29T22:44:16;8.15;;;2.70;;
75914;SDS011;64593;51.050;13.780;2024-03-29T22:49:19;6.82;;;2.90;;
75914;SDS011;64593;51.050;13.780;2024-03-29T22:54:21;7.93;;;3.25;;
75914;SDS011;64593;51.050;13.780;2024-03-29T22:59:23;6.25;;;2.60;;
